Strona główna
METAR-TAF:

METAR-TAF

Lotnisko :

Port lotniczy Svalbard

Longyearbyen, Norwegia

Szerokość geograficzna: 78-15N, Długość geograficzna: 015-28E, wysokość: 2 m

Aktualna obserwacja pogody

Raport powstał 57 minut temu, godzina 02:50 UTC
Wiatr 8 kt od wschodnio-południowy wschód
Temperatura 4°C
Wilgotność 75%
Ciśnienie 978 hPa
Widzialność 10 km lub więcej
Mało chmury na wysokości 2500 ft
Rozproszone chmury na wysokości 3800 ft
Przerywane chmury na wysokości 8800 ft

METAR: ENSB 240250Z 12008KT 9999 FEW025 SCT038 BKN088 04/M00 Q0978 RMK WIND 1400FT 10012KT

czas: 05:47 (03:47 UTC)

Prognoza

Prognoza ważna od 24 godzina 00 UTC do 24 godzina 24 UTC
Wiatr 8 kt od wschodnio-południowy wschód
Widzialność 10 km lub więcej
Przerywane chmury na wysokości 3000 ft
Przejściowo
od 24 godzina 20 UTC do 24 godzina 24 UTC
Wiatr 10 kt od zachodnio-południowy zachód

TAF: ENSB 2400/2424 12008KT 9999 BKN030 TEMPO 2420/2424 24010KT

Obserwacja i prognoza pogody dla ponad 4000 lotnisk (raport METAR i TAF).

Dostępne stacje oznaczono żółtymi i czerwonymi punktami na mapie.

Najedź kursorem aby zobaczyć nazwę stacji.

Kliknij aby zobaczyć obserwacje i prognozy pogody.

Aby zmienić mapę: kliknij na zielony przycisk z czarnym krzyżykiem, aby powiększyć; na zielony przycisk z myślnikiem, aby pomniejszyć; na zielone strzałki, aby przejść do map sąsiednich.


METAR-TAF: